Latest Weather Observations for Snowtown

IDS60801

Issued at 3:01 pm CST Thursday 28 May 2020 (issued every 10 minutes, with the page automatically refreshed every 10 minutes)

About weather observations | Map of weather stations | Latest weather observations for SA | Other Formats
Station Details ID: 021133 Name: RAYVILLE PARK Lat: -33.77 Lon: 138.22 Height: 109.1 m
Data from the previous 72 hours. | See also: Recent months at Snowtown
Date/Time
CST
Temp
°C
App
Temp
°C
Dew
Point
°C
Rel
Hum
%
Delta-T
°C
Wind Press
QNH
hPa
Press
MSL
hPa
Rain since
9am
mm
Dir  Spd
km/h
Gust
km/h
Spd
kts
Gust
kts
28/03:00pm 17.0 12.6 5.0 45 5.7 NW 17 24 9 13 1023.1 1023.0 0.0
28/02:30pm 17.1 13.3 6.0 48 5.4 W 15 19 8 10 1022.9 1022.8 0.0
28/02:00pm 16.7 12.5 5.6 48 5.4 WNW 17 24 9 13 1022.9 1022.8 0.0
28/01:30pm 17.1 11.9 5.4 46 5.6 NW 22 28 12 15 1023.1 1023.0 0.0
28/01:00pm 15.5 10.8 6.0 53 4.6 NW 20 26 11 14 1023.6 1023.5 0.0
28/12:30pm 15.4 11.4 6.7 56 4.3 WNW 17 24 9 13 1023.9 1023.9 0.0
28/12:00pm 15.6 11.2 7.4 58 4.1 WNW 20 28 11 15 1024.1 1024.1 0.0
28/11:30am 15.6 11.5 7.9 60 3.9 WNW 19 32 10 17 1024.4 1024.4 0.0
28/11:00am 14.6 11.2 9.0 69 2.9 WNW 17 22 9 12 1024.5 1024.5 0.0
28/10:30am 15.1 11.7 9.2 68 3.0 WNW 17 20 9 11 1024.7 1024.7 0.0
28/10:00am 14.2 12.2 10.0 76 2.2 NW 11 15 6 8 1024.7 1024.7 0.0
28/09:30am 14.6 11.7 9.8 73 2.5 NW 15 19 8 10 1024.4 1024.4 0.0
28/09:00am 14.0 11.1 9.8 76 2.2 NW 15 20 8 11 1024.0 1024.0 0.0
28/08:30am 12.9 11.5 11.0 88 1.0 N 9 17 5 9 1024.0 1024.0 0.0
28/08:00am 9.4 7.0 7.2 86 1.0 NNE 9 13 5 7 1023.7 1023.6 0.0
28/07:30am 9.8 7.1 7.4 85 1.1 N 11 15 6 8 1023.4 1023.3 0.0
28/07:00am 10.2 7.6 7.6 84 1.3 N 11 15 6 8 1022.9 1022.8 0.0
28/06:30am 10.2 7.9 7.3 82 1.4 N 9 13 5 7 1022.6 1022.5 0.0
28/06:00am 10.0 7.2 7.1 82 1.4 N 11 13 6 7 1022.1 1022.1 0.0
28/05:30am 9.8 6.2 6.9 82 1.4 N 15 17 8 9 1021.8 1021.8 0.0
28/05:00am 9.8 7.3 6.7 81 1.5 N 9 13 5 7 1021.7 1021.7 0.0
28/04:30am 9.9 7.1 6.8 81 1.5 N 11 13 6 7 1021.6 1021.6 0.0
28/04:00am 9.4 6.5 6.3 81 1.4 N 11 13 6 7 1021.5 1021.5 0.0
28/03:30am 8.9 6.2 5.8 81 1.4 N 9 11 5 6 1021.5 1021.5 0.0
28/03:00am 8.8 6.2 5.9 82 1.3 N 9 11 5 6 1021.5 1021.5 0.0
28/02:30am 8.0 5.2 5.3 83 1.2 N 9 11 5 6 1021.4 1021.4 0.0
28/02:00am 7.9 5.0 4.8 81 1.4 NNE 9 11 5 6 1021.3 1021.3 0.0
28/01:30am 9.0 6.6 5.2 77 1.7 ENE 7 9 4 5 1021.2 1021.2 0.0
28/01:00am 9.6 8.2 5.6 76 1.8 NE 2 7 1 4 1021.1 1021.1 0.0
28/12:30am 9.7 7.6 5.7 76 1.8 NNW 6 9 3 5 1021.1 1021.1 0.0
28/12:00am 9.5 6.8 5.5 76 1.8 N 9 11 5 6 1021.2 1021.2 0.0
 
Date/Time
CST
Temp
°C
App
Temp
°C
Dew
Point
°C
Rel
Hum
%
Delta-T
°C
Wind Press
QNH
hPa
Press
MSL
hPa
Rain since
9am
mm
Dir  Spd
km/h
Gust
km/h
Spd
kts
Gust
kts
27/11:30pm 9.8 8.3 5.0 72 2.2 NE 2 11 1 6 1021.3 1021.3 0.0
27/11:00pm 10.4 7.7 5.6 72 2.2 NNW 9 13 5 7 1021.1 1021.1 0.0
27/10:30pm 10.7 6.5 5.5 70 2.4 N 17 19 9 10 1020.9 1020.9 0.0
27/10:00pm 12.2 10.0 6.3 67 2.8 N 7 11 4 6 1020.8 1020.8 0.0
27/09:30pm 11.6 10.0 6.3 70 2.5 N 4 7 2 4 1020.8 1020.8 0.0
27/09:00pm 11.8 8.9 6.3 69 2.6 N 11 13 6 7 1020.7 1020.7 0.0
27/08:30pm 11.7 8.3 5.8 67 2.8 NNE 13 15 7 8 1020.6 1020.6 0.0
27/08:00pm 13.4 11.0 7.2 66 3.0 WNW 9 13 5 7 1020.4 1020.4 0.0
27/07:30pm 13.3 10.5 6.9 65 3.1 NW 11 13 6 7 1020.2 1020.2 0.0
27/07:00pm 12.4 8.7 6.2 66 2.9 NW 15 17 8 9 1020.0 1020.0 0.0
27/06:30pm 11.2 7.8 5.9 70 2.5 NW 13 17 7 9 1019.8 1019.8 0.0
27/06:00pm 10.7 7.4 4.4 65 2.8 NW 11 13 6 7 1019.6 1019.6 0.0
27/05:30pm 12.3 9.6 5.5 63 3.2 WNW 9 11 5 6 1019.4 1019.4 0.0
27/05:00pm 15.6 13.0 6.1 53 4.6 NNW 9 11 5 6 1019.3 1019.3 0.0
27/04:30pm 17.0 14.6 6.8 51 5.1 NW 9 15 5 8 1019.0 1019.0 0.0
27/04:00pm 17.4 14.2 6.9 50 5.2 WNW 13 19 7 10 1018.9 1018.9 0.0
27/03:30pm 17.3 13.6 6.5 49 5.3 WNW 15 20 8 11 1018.7 1018.7 0.0
27/03:00pm 17.7 13.8 7.2 50 5.3 WNW 17 24 9 13 1018.6 1018.6 0.0
27/02:30pm 17.5 13.5 6.7 49 5.4 WNW 17 24 9 13 1018.6 1018.6 0.0
27/02:00pm 17.6 13.3 6.8 49 5.4 NW 19 28 10 15 1018.6 1018.6 0.0
27/01:30pm 17.8 13.2 6.3 47 5.7 NW 20 28 11 15 1018.9 1018.9 0.0
27/01:00pm 17.7 13.5 5.9 46 5.8 WNW 17 28 9 15 1019.3 1019.3 0.0
27/12:30pm 17.4 12.7 6.0 47 5.6 NNW 20 28 11 15 1019.6 1019.6 0.0
27/12:00pm 17.2 13.3 5.5 46 5.7 NNW 15 24 8 13 1019.9 1019.9 0.0
27/11:30am 16.5 11.4 5.8 49 5.2 NNW 22 30 12 16 1020.4 1020.4 0.0
27/11:00am 16.0 9.5 6.7 54 4.6 NW 30 39 16 21 1020.5 1020.5 0.0
27/10:30am 15.4 8.3 5.6 52 4.7 NW 32 41 17 22 1020.9 1020.9 0.0
27/10:00am 14.6 7.1 4.6 51 4.7 NW 33 44 18 24 1021.1 1021.1 0.0
27/09:30am 14.1 6.6 4.4 52 4.5 NW 33 41 18 22 1021.0 1021.0 0.0
27/09:00am 14.0 7.4 4.0 51 4.6 NW 28 35 15 19 1020.7 1020.7 0.0
27/08:30am 13.2 7.3 4.1 54 4.1 NNW 24 32 13 17 1020.4 1020.4 0.0
27/08:00am 12.4 7.8 3.9 56 3.8 NNW 17 24 9 13 1020.2 1020.2 0.0
27/07:30am 10.3 6.1 3.8 64 2.9 NNW 15 19 8 10 1020.0 1020.0 0.0
27/07:00am 10.9 5.9 3.7 61 3.2 NNW 19 24 10 13 1019.7 1019.7 0.0
27/06:30am 11.3 6.2 4.3 62 3.2 NNW 20 26 11 14 1019.4 1019.4 0.0
27/06:00am 11.3 6.2 4.1 61 3.2 NNW 20 26 11 14 1019.0 1019.0 0.0
27/05:30am 12.0 6.1 3.8 57 3.7 NNW 24 30 13 16 1018.8 1018.8 0.0
27/05:00am 11.7 6.7 3.5 57 3.6 NNW 19 26 10 14 1018.7 1018.7 0.0
27/04:30am 12.0 6.5 4.0 58 3.6 NNW 22 26 12 14 1018.7 1018.7 0.0
27/04:00am 12.6 6.7 3.8 55 4.0 NNW 24 33 13 18 1018.5 1018.5 0.0
27/03:30am 12.2 7.4 4.7 60 3.4 NNW 19 28 10 15 1018.5 1018.5 0.0
27/03:00am 12.7 7.8 4.9 59 3.6 NNW 20 24 11 13 1018.5 1018.5 0.0
27/02:30am 12.7 7.9 4.9 59 3.6 NNW 19 28 10 15 1018.6 1018.6 0.0
27/02:00am 12.5 6.8 5.0 60 3.5 NNW 24 33 13 18 1018.5 1018.5 0.0
27/01:30am 12.0 6.2 6.3 68 2.7 NNW 26 32 14 17 1018.6 1018.6 0.0
27/01:00am 12.7 6.2 4.9 59 3.6 NNW 28 37 15 20 1018.6 1018.6 0.0
27/12:30am 11.7 5.8 5.6 66 2.8 N 26 32 14 17 1018.7 1018.7 0.0
27/12:00am 13.4 7.0 3.2 50 4.6 N 26 43 14 23 1018.9 1018.9 0.0
 
Date/Time
CST
Temp
°C
App
Temp
°C
Dew
Point
°C
Rel
Hum
%
Delta-T
°C
Wind Press
QNH
hPa
Press
MSL
hPa
Rain since
9am
mm
Dir  Spd
km/h
Gust
km/h
Spd
kts
Gust
kts
26/11:57pm 13.6 7.9 3.1 49 4.7 N 22 43 12 23 1018.9 1018.9 0.0
26/11:30pm 11.8 7.7 4.3 60 3.4 NNE 15 20 8 11 1019.0 1019.0 0.0
26/11:00pm 12.3 8.2 4.3 58 3.6 N 15 19 8 10 1019.1 1019.1 0.0
26/10:30pm 11.6 7.5 4.6 62 3.2 N 15 22 8 12 1019.0 1019.0 0.0
26/10:00pm 11.1 7.0 4.1 62 3.1 N 15 20 8 11 1019.0 1019.0 0.0
26/09:30pm 12.4 8.2 3.9 56 3.8 N 15 17 8 9 1018.9 1018.9 0.0
26/09:00pm 12.7 7.6 3.9 55 4.0 N 20 26 11 14 1018.8 1018.8 0.0
26/08:30pm 12.9 7.7 3.8 54 4.1 N 20 22 11 12 1018.6 1018.6 0.0
26/08:00pm 13.3 7.6 3.1 50 4.6 NNW 22 30 12 16 1018.4 1018.4 0.0
26/07:30pm 13.5 7.5 3.3 50 4.6 NNW 24 33 13 18 1018.2 1018.2 0.0
26/07:00pm 13.5 7.6 4.1 53 4.3 NW 24 32 13 17 1018.2 1018.2 0.0
26/06:30pm 13.1 8.2 4.3 55 4.0 NNW 19 26 10 14 1017.5 1017.5 0.0
26/06:00pm 12.6 7.7 4.3 57 3.8 NW 19 22 10 12 1017.3 1017.3 0.0
26/05:30pm 13.7 7.7 3.5 50 4.6 NNE 24 30 13 16 1016.7 1016.7 0.0
26/05:00pm 14.4 8.3 2.9 46 5.2 N 24 30 13 16 1016.4 1016.4 0.0
26/04:30pm 14.8 9.0 4.2 49 4.9 N 24 28 13 15 1016.6 1016.6 0.0
26/04:00pm 14.7 9.3 4.4 50 4.8 NNE 22 30 12 16 1016.5 1016.5 0.0
26/03:30pm 15.7 10.1 5.6 51 4.9 NNE 24 32 13 17 1016.8 1016.8 0.0
26/03:00pm 15.3 9.2 4.7 49 5.0 NNE 26 32 14 17 1016.6 1016.6 0.0
26/02:30pm 16.4 9.3 3.5 42 6.0 N 30 37 16 20 1017.2 1017.2 0.0
26/02:00pm 17.4 10.4 1.8 35 7.0 NNE 28 33 15 18 1017.0 1017.0 0.0
26/01:30pm 16.7 9.8 2.7 39 6.4 N 28 35 15 19 1017.4 1017.4 0.0
26/01:00pm 15.9 8.7 3.0 42 5.9 N 30 35 16 19 1017.7 1017.7 0.0
26/12:30pm 15.3 9.0 3.5 45 5.4 N 26 35 14 19 1018.6 1018.6 0.0
26/12:00pm 15.0 7.5 3.2 45 5.4 N 32 39 17 21 1019.0 1019.0 0.0
26/11:30am 14.8 7.7 3.6 47 5.1 NNE 30 39 16 21 1019.7 1019.7 0.0
26/11:00am 13.8 6.0 3.0 48 4.8 N 33 43 18 23 1019.9 1019.9 0.0
26/10:30am 13.6 6.3 4.7 55 4.1 NNE 32 41 17 22 1020.2 1020.2 0.0
26/10:00am 12.7 6.3 5.1 60 3.5 N 28 35 15 19 1020.5 1020.5 0.0
26/09:30am 12.1 5.3 5.3 63 3.1 N 30 41 16 22 1020.7 1020.7 0.0
26/09:00am 10.7 3.3 5.0 68 2.6 N 33 43 18 23 1020.5 1020.5 0.2
26/08:30am 9.4 4.5 5.0 74 2.0 NNE 20 32 11 17 1020.5 1020.5 0.2
26/08:00am 7.9 3.0 4.3 78 1.6 NNE 19 22 10 12 1020.5 1020.5 0.2
26/07:30am 7.9 2.5 4.3 78 1.6 N 22 26 12 14 1020.3 1020.3 0.2
26/07:00am 7.0 2.4 3.8 80 1.4 NE 17 20 9 11 1020.4 1020.4 0.2
26/06:30am 6.8 1.8 3.8 81 1.3 NNE 19 20 10 11 1020.6 1020.6 0.2
26/06:00am 7.0 1.5 3.8 80 1.4 NNE 22 26 12 14 1020.5 1020.5 0.2
26/05:30am 6.8 1.6 3.6 80 1.4 N 20 24 11 13 1020.4 1020.4 0.2
26/05:00am 7.1 1.9 3.7 79 1.5 N 20 26 11 14 1020.3 1020.3 0.2
26/04:30am 6.6 2.4 3.6 81 1.3 NNE 15 19 8 10 1020.4 1020.4 0.2
26/04:00am 6.8 1.8 3.6 80 1.4 NNE 19 20 10 11 1020.8 1020.8 0.2
26/03:30am 7.1 2.1 3.5 78 1.5 N 19 20 10 11 1021.2 1021.2 0.2
26/03:00am 8.0 2.8 3.8 75 1.8 N 20 22 11 12 1021.1 1021.1 0.2
26/02:30am 7.9 3.0 3.9 76 1.7 N 19 22 10 12 1020.6 1020.6 0.2
26/02:00am 7.9 2.7 3.8 75 1.8 N 20 22 11 12 1020.9 1020.9 0.2
26/01:30am 8.0 2.8 3.5 73 1.9 N 20 24 11 13 1020.9 1020.9 0.2
26/01:00am 7.7 3.0 3.4 74 1.8 N 17 20 9 11 1021.6 1021.6 0.2
26/12:30am 7.0 2.3 3.4 78 1.5 N 17 20 9 11 1021.5 1021.5 0.2
26/12:00am 7.8 2.5 2.9 71 2.1 N 20 24 11 13 1021.7 1021.7 0.2
 
Date/Time
CST
Temp
°C
App
Temp
°C
Dew
Point
°C
Rel
Hum
%
Delta-T
°C
Wind Press
QNH
hPa
Press
MSL
hPa
Rain since
9am
mm
Dir  Spd
km/h
Gust
km/h
Spd
kts
Gust
kts
25/11:30pm 8.7 3.1 3.3 69 2.3 N 22 24 12 13 1022.0 1022.0 0.2
25/11:00pm 9.3 3.3 3.3 66 2.6 N 24 30 13 16 1022.0 1022.0 0.2
25/10:30pm 8.2 2.9 3.1 70 2.2 N 20 24 11 13 1021.8 1021.8 0.2
25/10:00pm 8.7 3.1 3.3 69 2.3 N 22 28 12 15 1021.6 1021.6 0.2
25/09:30pm 8.1 3.0 4.1 76 1.7 NW 20 26 11 14 1021.8 1021.8 0.2
25/09:00pm 6.9 3.1 3.7 80 1.4 N 13 17 7 9 1020.6 1020.6 0.2
25/08:30pm 7.3 3.5 4.1 80 1.4 N 13 20 7 11 1020.8 1020.8 0.2
25/08:00pm 6.4 2.9 3.6 82 1.2 NNE 11 15 6 8 1020.8 1020.8 0.2
25/07:30pm 7.7 4.3 3.9 77 1.6 NE 11 13 6 7 1021.1 1021.1 0.2
25/07:00pm 8.4 4.7 4.2 75 1.8 E 13 17 7 9 1021.4 1021.4 0.2
25/06:30pm 8.7 4.6 4.3 74 1.9 NW 15 17 8 9 1021.1 1021.1 0.2
25/06:00pm 9.4 5.3 4.6 72 2.1 NNW 15 15 8 8 1021.1 1021.1 0.2
25/05:30pm 10.3 7.0 4.5 67 2.6 NNW 11 13 6 7 1021.3 1021.3 0.2
25/05:00pm 11.9 8.3 4.9 62 3.2 NNE 13 15 7 8 1021.3 1021.3 0.2
25/04:30pm 13.3 9.6 4.5 55 4.0 NNE 13 17 7 9 1021.1 1021.1 0.2
25/04:00pm 13.6 9.4 3.7 51 4.5 NE 15 17 8 9 1021.6 1021.6 0.2
25/03:30pm 14.2 10.1 4.2 51 4.6 NNE 15 20 8 11 1021.9 1021.9 0.2

Other formats

Comma delimited format used in spreadsheet applications
http://www.bom.gov.au/fwo/IDS60801/IDS60801.95670.axf

JavaScript Object Notation format (JSON) in row-major order
http://www.bom.gov.au/fwo/IDS60801/IDS60801.95670.json

Data quality

Most of these data are generated automatically and are frequently updated. Quality checks on data are not normally performed. It is possible for incorrect values to appear. Refer to information at About Latest Weather Observations and please check the disclaimer before using these data.